createdAt,value
2018-11-06T00:00:56.818Z,96300.31
2018-11-06T00:03:24.260Z,96304.76
2018-11-06T00:05:51.708Z,96305.98
2018-11-06T00:08:19.154Z,96299.17
2018-11-06T00:10:46.660Z,96290.37
2018-11-06T00:13:14.193Z,96291.45
2018-11-06T00:15:41.672Z,96292.27
2018-11-06T00:18:09.155Z,96293.34
2018-11-06T00:20:36.605Z,96298.31
2018-11-06T00:23:04.058Z,96303.81
2018-11-06T00:25:31.500Z,96294.34
2018-11-06T00:27:58.998Z,96293.48
2018-11-06T00:30:26.439Z,96299.85
2018-11-06T00:32:53.931Z,96307.05
2018-11-06T00:35:21.389Z,96292.52
2018-11-06T00:37:48.846Z,96291.27
2018-11-06T00:40:16.309Z,96287.73
2018-11-06T00:42:43.863Z,96291.86
2018-11-06T00:45:11.338Z,96289.83
2018-11-06T00:47:39.369Z,96289.30
2018-11-06T00:50:06.853Z,96286.63
2018-11-06T00:52:34.404Z,96274.02
2018-11-06T00:55:01.861Z,96267.83
2018-11-06T00:57:29.317Z,96267.05
2018-11-06T00:59:57.814Z,96274.98
2018-11-06T01:02:25.322Z,96279.09
2018-11-06T01:04:52.800Z,96275.08
2018-11-06T01:07:20.234Z,96278.03
2018-11-06T01:09:47.706Z,96275.29
2018-11-06T01:12:15.158Z,96280.45
2018-11-06T01:14:42.599Z,96280.06
2018-11-06T01:17:10.092Z,96266.77
2018-11-06T01:19:37.526Z,96268.95
2018-11-06T01:22:05.016Z,96272.33
2018-11-06T01:24:32.456Z,96261.38
2018-11-06T01:26:59.879Z,96264.84
2018-11-06T01:29:27.326Z,96263.06
2018-11-06T01:31:54.788Z,96252.60
2018-11-06T01:34:22.281Z,96251.46
2018-11-06T01:36:49.715Z,96249.70
2018-11-06T01:39:17.167Z,96245.56
2018-11-06T01:41:44.649Z,96237.17
2018-11-06T01:44:12.075Z,96248.94
2018-11-06T01:46:39.522Z,96248.20
2018-11-06T01:49:06.953Z,96244.95
2018-11-06T01:51:34.505Z,96243.29
2018-11-06T01:54:02.124Z,96240.09
2018-11-06T01:56:29.655Z,96229.59
2018-11-06T01:58:57.087Z,96233.89
2018-11-06T02:01:25.139Z,96226.08
2018-11-06T02:03:52.582Z,96231.08
2018-11-06T02:06:20.067Z,96230.39
2018-11-06T02:08:47.525Z,96224.34
2018-11-06T02:11:14.974Z,96217.24
2018-11-06T02:13:42.410Z,96219.31
2018-11-06T02:16:09.852Z,96225.40
2018-11-06T02:18:37.302Z,96236.39
2018-11-06T02:21:04.763Z,96242.31
2018-11-06T02:23:32.191Z,96239.80
2018-11-06T02:25:59.844Z,96240.86
2018-11-06T02:28:27.326Z,96227.64
2018-11-06T02:30:54.759Z,96229.72
2018-11-06T02:33:22.189Z,96220.77
2018-11-06T02:35:49.630Z,96229.98
2018-11-06T02:38:17.089Z,96227.35
2018-11-06T02:40:44.543Z,96229.61
2018-11-06T02:43:12.005Z,96224.23
2018-11-06T02:45:39.461Z,96217.95
2018-11-06T02:48:06.895Z,96225.51
2018-11-06T02:50:34.352Z,96227.83
2018-11-06T02:53:01.817Z,96218.44
2018-11-06T02:55:29.266Z,96216.71
2018-11-06T02:57:56.732Z,96222.13
2018-11-06T03:00:24.186Z,96221.14
2018-11-06T03:02:51.623Z,96218.50
2018-11-06T03:05:19.060Z,96214.01
2018-11-06T03:07:47.370Z,96212.23
2018-11-06T03:10:14.886Z,96210.60
2018-11-06T03:12:42.327Z,96212.48
2018-11-06T03:15:09.831Z,96217.70
2018-11-06T03:17:38.035Z,96215.31
2018-11-06T03:20:05.468Z,96214.04
2018-11-06T03:22:33.871Z,96220.80
2018-11-06T03:25:01.336Z,96227.39
2018-11-06T03:27:28.826Z,96233.81
2018-11-06T03:29:56.479Z,96235.37
2018-11-06T03:32:23.903Z,96232.83
2018-11-06T03:34:51.405Z,96240.30
2018-11-06T03:37:18.908Z,96246.02
2018-11-06T03:39:46.355Z,96242.48
2018-11-06T03:42:13.826Z,96249.37
2018-11-06T03:44:41.282Z,96253.39
2018-11-06T03:47:08.732Z,96251.45
2018-11-06T03:49:36.170Z,96259.42
2018-11-06T03:52:03.630Z,96253.31
2018-11-06T03:54:31.111Z,96259.39
2018-11-06T03:56:58.566Z,96252.27
2018-11-06T03:59:26.042Z,96248.45
2018-11-06T04:01:53.473Z,96232.33
2018-11-06T04:04:20.903Z,96219.70
2018-11-06T04:06:49.277Z,96217.94
2018-11-06T04:09:16.831Z,96216.41
2018-11-06T04:11:44.259Z,96213.72
2018-11-06T04:14:11.706Z,96216.58
2018-11-06T04:16:39.159Z,96216.88
2018-11-06T04:19:06.687Z,96215.75
2018-11-06T04:21:34.145Z,96230.45
2018-11-06T04:24:01.721Z,96239.94
2018-11-06T04:26:29.176Z,96233.52
2018-11-06T04:28:56.645Z,96234.73
2018-11-06T04:31:24.098Z,96234.35
2018-11-06T04:33:51.598Z,96231.81
2018-11-06T04:36:19.035Z,96215.98
2018-11-06T04:38:46.489Z,96208.60
2018-11-06T04:41:13.925Z,96211.47
2018-11-06T04:43:41.359Z,96204.26
2018-11-06T04:46:09.028Z,96188.58
2018-11-06T04:48:36.570Z,96195.77
2018-11-06T04:51:04.050Z,96196.59
2018-11-06T04:53:31.485Z,96184.30
2018-11-06T04:55:59.024Z,96173.95
2018-11-06T04:58:26.460Z,96169.72
2018-11-06T05:00:53.909Z,96174.55
2018-11-06T05:03:21.388Z,96180.39
2018-11-06T05:05:48.842Z,96187.56
2018-11-06T05:08:16.271Z,96188.63
2018-11-06T05:10:43.731Z,96184.59
2018-11-06T05:13:11.202Z,96188.47
2018-11-06T05:15:38.639Z,96166.78
2018-11-06T05:18:06.071Z,96174.78
2018-11-06T05:20:33.530Z,96176.16
2018-11-06T05:23:00.958Z,96170.02
2018-11-06T05:25:28.451Z,96160.16
2018-11-06T05:27:55.898Z,96156.85
2018-11-06T05:30:23.328Z,96161.00
2018-11-06T05:32:50.892Z,96157.20
2018-11-06T05:35:18.309Z,96162.06
2018-11-06T05:37:45.765Z,96168.62
2018-11-06T05:43:19.383Z,96160.88
2018-11-06T05:45:46.845Z,96163.16
2018-11-06T05:48:14.291Z,96154.86
2018-11-06T05:50:41.786Z,96160.56
2018-11-06T05:53:10.144Z,96159.27
2018-11-06T05:55:37.672Z,96145.73
2018-11-06T05:58:05.165Z,96154.98
2018-11-06T06:00:32.677Z,96144.14
2018-11-06T06:03:00.121Z,96141.91
2018-11-06T06:05:27.674Z,96154.42
2018-11-06T06:07:55.120Z,96167.55
2018-11-06T06:10:22.560Z,96154.61
2018-11-06T06:12:50.003Z,96156.92
2018-11-06T06:15:17.452Z,96151.84
2018-11-06T06:17:44.965Z,96152.05
2018-11-06T06:20:12.980Z,96146.91
2018-11-06T06:22:42.303Z,96131.76
2018-11-06T06:25:10.538Z,96141.88
2018-11-06T06:27:38.073Z,96148.66
2018-11-06T06:30:05.511Z,96150.75
2018-11-06T06:32:32.954Z,96163.89
2018-11-06T06:35:01.207Z,96153.95
2018-11-06T06:37:28.606Z,96147.43
2018-11-06T06:39:56.226Z,96153.64
2018-11-06T06:42:23.877Z,96155.69
2018-11-06T06:44:51.428Z,96148.34
2018-11-06T06:47:18.860Z,96162.78
2018-11-06T06:49:46.293Z,96166.08
2018-11-06T06:52:13.768Z,96166.75
2018-11-06T06:54:41.303Z,96169.56
2018-11-06T06:57:08.658Z,96177.56
2018-11-06T06:59:36.141Z,96176.23
2018-11-06T07:02:03.598Z,96178.64
2018-11-06T07:04:31.042Z,96181.87
2018-11-06T07:06:58.499Z,96186.59
2018-11-06T07:09:25.982Z,96181.08
2018-11-06T07:11:53.431Z,96182.09
2018-11-06T07:14:21.023Z,96180.80
2018-11-06T07:16:48.469Z,96184.25
2018-11-06T07:19:16.005Z,96187.11
2018-11-06T07:21:43.544Z,96182.97
2018-11-06T07:24:10.974Z,96189.90
2018-11-06T07:26:38.424Z,96183.67
2018-11-06T07:29:05.852Z,96192.63
2018-11-06T07:31:33.303Z,96193.86
2018-11-06T07:34:00.744Z,96193.45
2018-11-06T07:36:28.224Z,96213.31
2018-11-06T07:38:55.705Z,96223.89
2018-11-06T07:41:23.481Z,96210.70
2018-11-06T07:43:51.004Z,96221.48
2018-11-06T07:46:18.463Z,96229.81
2018-11-06T07:48:46.097Z,96222.77
2018-11-06T07:51:14.265Z,96224.05
2018-11-06T07:53:41.778Z,96231.27
2018-11-06T07:56:09.312Z,96239.61
2018-11-06T07:58:36.795Z,96235.98
2018-11-06T08:01:04.318Z,96248.57
2018-11-06T08:03:31.758Z,96239.94
2018-11-06T08:05:59.338Z,96239.12
2018-11-06T08:08:26.812Z,96243.52
2018-11-06T08:10:54.259Z,96243.52
2018-11-06T08:13:21.817Z,96231.78
2018-11-06T08:15:49.263Z,96221.10
2018-11-06T08:18:16.741Z,96213.48
2018-11-06T08:20:44.359Z,96210.34
2018-11-06T08:23:11.755Z,96195.11
2018-11-06T08:25:39.192Z,96191.32
2018-11-06T08:28:07.001Z,96194.42
2018-11-06T08:30:34.526Z,96204.89
2018-11-06T08:33:02.252Z,96203.04
2018-11-06T08:35:29.723Z,96205.17
2018-11-06T08:37:57.250Z,96218.27
2018-11-06T08:40:24.717Z,96231.27
2018-11-06T08:42:52.183Z,96240.39
2018-11-06T08:45:19.774Z,96240.52
2018-11-06T08:47:47.852Z,96246.58
2018-11-06T08:50:15.339Z,96257.89
2018-11-06T08:52:42.808Z,96257.22
2018-11-06T08:55:10.278Z,96262.53
2018-11-06T08:57:38.079Z,96279.56
2018-11-06T09:00:06.112Z,96281.65
2018-11-06T09:02:33.638Z,96282.67
2018-11-06T09:05:01.171Z,96279.48
2018-11-06T09:07:28.628Z,96278.62
2018-11-06T09:09:56.072Z,96282.73
2018-11-06T09:12:23.537Z,96286.79
2018-11-06T09:14:51.098Z,96277.75
2018-11-06T09:17:18.553Z,96281.45
2018-11-06T09:19:46.173Z,96297.56
2018-11-06T09:22:13.637Z,96322.45
2018-11-06T09:24:41.096Z,96328.78
2018-11-06T09:27:08.672Z,96332.47
2018-11-06T09:29:36.127Z,96341.51
2018-11-06T09:32:03.571Z,96315.81
2018-11-06T09:34:31.031Z,96333.73
2018-11-06T09:36:58.480Z,96310.41
2018-11-06T09:39:25.956Z,96316.03
2018-11-06T09:41:53.489Z,96323.55
2018-11-06T09:44:20.935Z,96334.33
2018-11-06T09:46:48.408Z,96327.91
2018-11-06T09:49:15.885Z,96313.59
2018-11-06T09:51:43.359Z,96314.11
2018-11-06T09:54:11.011Z,96316.26
2018-11-06T09:56:40.369Z,96314.81
2018-11-06T09:59:07.827Z,96318.48
2018-11-06T10:01:35.296Z,96320.22
2018-11-06T10:04:02.788Z,96310.83
2018-11-06T10:06:30.965Z,96305.20
2018-11-06T10:08:58.385Z,96305.47
2018-11-06T10:11:25.904Z,96314.95
2018-11-06T10:13:53.309Z,96311.36
2018-11-06T10:16:20.803Z,96319.13
2018-11-06T10:18:48.239Z,96324.20
2018-11-06T10:21:15.724Z,96325.82
2018-11-06T10:23:43.239Z,96324.78
2018-11-06T10:26:10.679Z,96309.89
2018-11-06T10:28:38.179Z,96306.75
2018-11-06T10:31:05.618Z,96297.14
2018-11-06T10:33:33.068Z,96303.20
2018-11-06T10:36:00.519Z,96299.60
2018-11-06T10:38:28.004Z,96292.67
2018-11-06T10:40:55.547Z,96303.72
2018-11-06T10:43:24.208Z,96308.09
2018-11-06T10:45:51.884Z,96305.98
2018-11-06T10:48:19.313Z,96300.98
2018-11-06T10:50:46.860Z,96296.75
2018-11-06T10:53:14.310Z,96314.52
2018-11-06T10:55:41.782Z,96309.91
2018-11-06T10:58:09.448Z,96305.99
2018-11-06T11:00:37.435Z,96304.11
2018-11-06T11:03:04.871Z,96305.77
2018-11-06T11:05:32.420Z,96306.86
2018-11-06T11:08:00.170Z,96313.34
2018-11-06T11:10:27.840Z,96296.58
2018-11-06T11:12:55.245Z,96298.01
2018-11-06T11:15:22.731Z,96295.36
2018-11-06T11:17:50.842Z,96310.17
2018-11-06T11:20:18.378Z,96317.98
2018-11-06T11:22:45.859Z,96320.80
2018-11-06T11:25:13.407Z,96322.48
2018-11-06T11:27:40.954Z,96316.12
2018-11-06T11:30:08.417Z,96347.35
2018-11-06T11:32:36.005Z,96341.23
2018-11-06T11:35:03.501Z,96349.00
2018-11-06T11:37:31.065Z,96368.86
2018-11-06T11:39:58.624Z,96368.45
2018-11-06T11:42:26.180Z,96368.28
2018-11-06T11:44:53.710Z,96354.36
2018-11-06T11:47:21.265Z,96377.27
2018-11-06T11:49:48.806Z,96358.77
2018-11-06T11:52:16.661Z,96372.84
2018-11-06T11:54:44.104Z,96382.05
2018-11-06T11:57:11.599Z,96392.34
2018-11-06T11:59:39.150Z,96399.72
2018-11-06T12:02:06.667Z,96396.27
2018-11-06T12:04:34.156Z,96388.92
2018-11-06T12:07:01.604Z,96393.91
2018-11-06T12:09:29.066Z,96394.95
2018-11-06T12:11:56.543Z,96401.91
2018-11-06T12:14:23.982Z,96388.52
2018-11-06T12:16:51.916Z,96394.34
2018-11-06T12:19:19.432Z,96397.30
2018-11-06T12:21:48.080Z,96394.23
2018-11-06T12:24:15.748Z,96402.27
2018-11-06T12:26:43.159Z,96393.63
2018-11-06T12:29:10.637Z,96401.94
2018-11-06T12:31:38.140Z,96409.36
2018-11-06T12:34:05.601Z,96411.70
2018-11-06T12:36:33.061Z,96418.58
2018-11-06T12:39:01.281Z,96403.88
2018-11-06T12:41:28.699Z,96404.30
2018-11-06T12:43:56.289Z,96407.42
2018-11-06T12:46:23.819Z,96407.70
2018-11-06T12:48:51.258Z,96408.72
2018-11-06T12:51:18.901Z,96418.20
2018-11-06T12:53:46.539Z,96417.91
2018-11-06T12:56:14.041Z,96435.39
2018-11-06T12:58:41.450Z,96433.37
2018-11-06T13:01:09.075Z,96437.86
2018-11-06T13:03:36.743Z,96437.81
2018-11-06T13:06:05.152Z,96441.77
2018-11-06T13:08:33.130Z,96449.67
2018-11-06T13:11:00.589Z,96447.71
2018-11-06T13:13:28.045Z,96462.22
2018-11-06T13:15:55.584Z,96466.80
2018-11-06T13:18:23.046Z,96469.70
2018-11-06T13:20:51.092Z,96479.06
2018-11-06T13:23:18.554Z,96488.33
2018-11-06T13:25:46.223Z,96486.00
2018-11-06T13:28:13.581Z,96500.38
2018-11-06T13:30:41.067Z,96485.08
2018-11-06T13:33:08.529Z,96498.57
2018-11-06T13:35:35.984Z,96500.61
2018-11-06T13:38:03.445Z,96506.08
2018-11-06T13:40:30.921Z,96517.80
2018-11-06T13:42:58.548Z,96520.45
2018-11-06T13:45:26.015Z,96522.84
2018-11-06T13:47:53.344Z,96530.75
2018-11-06T13:50:20.900Z,96537.76
2018-11-06T13:52:50.016Z,96543.61
2018-11-06T13:55:17.542Z,96545.22
2018-11-06T13:57:45.039Z,96552.56
2018-11-06T14:00:12.697Z,96546.31
2018-11-06T14:02:40.162Z,96553.05
2018-11-06T14:05:07.668Z,96552.40
2018-11-06T14:07:35.137Z,96563.62
2018-11-06T14:10:03.140Z,96553.55
2018-11-06T14:12:30.599Z,96552.62
2018-11-06T14:14:58.668Z,96546.91
2018-11-06T14:17:26.185Z,96547.98
2018-11-06T14:19:53.633Z,96545.59
2018-11-06T14:22:21.061Z,96548.08
2018-11-06T14:24:48.508Z,96541.53
2018-11-06T14:27:15.978Z,96543.33
2018-11-06T14:29:43.485Z,96541.94
2018-11-06T14:32:11.007Z,96538.66
2018-11-06T14:34:39.488Z,96534.02
2018-11-06T14:37:06.926Z,96530.55
2018-11-06T14:39:34.368Z,96532.22
2018-11-06T14:42:01.979Z,96534.67
2018-11-06T14:44:29.379Z,96534.74
2018-11-06T14:46:56.890Z,96529.11
2018-11-06T14:49:24.367Z,96527.33
2018-11-06T14:51:51.849Z,96531.15
2018-11-06T14:54:19.489Z,96536.47
2018-11-06T14:56:47.741Z,96543.27
2018-11-06T14:59:15.254Z,96543.09
2018-11-06T15:01:42.816Z,96544.04
2018-11-06T15:04:10.467Z,96544.04
2018-11-06T15:06:37.932Z,96538.20
2018-11-06T15:09:05.445Z,96533.48
2018-11-06T15:11:33.167Z,96528.52
2018-11-06T15:14:00.607Z,96531.64
2018-11-06T15:16:28.066Z,96528.53
2018-11-06T15:18:55.590Z,96529.44
2018-11-06T15:21:23.391Z,96530.56
2018-11-06T15:23:50.827Z,96540.98
2018-11-06T15:26:18.337Z,96534.48
2018-11-06T15:28:45.904Z,96534.08
2018-11-06T15:31:13.374Z,96539.70
2018-11-06T15:33:40.835Z,96537.23
2018-11-06T15:36:08.273Z,96533.36
2018-11-06T15:38:35.720Z,96534.92
2018-11-06T15:41:03.330Z,96534.56
2018-11-06T15:43:30.700Z,96535.14
2018-11-06T15:45:58.332Z,96537.97
2018-11-06T15:48:25.795Z,96521.84
2018-11-06T15:50:53.240Z,96527.39
2018-11-06T15:53:20.694Z,96529.65
2018-11-06T15:55:48.122Z,96524.87
2018-11-06T15:58:16.225Z,96537.55
2018-11-06T16:00:43.737Z,96546.31
2018-11-06T16:03:11.252Z,96533.84
2018-11-06T16:05:38.691Z,96535.87
2018-11-06T16:08:06.232Z,96536.34
2018-11-06T16:10:33.735Z,96531.58
2018-11-06T16:13:01.368Z,96528.09
2018-11-06T16:15:28.952Z,96536.70
2018-11-06T16:17:56.318Z,96526.91
2018-11-06T16:20:23.808Z,96534.44
2018-11-06T16:22:51.243Z,96545.42
2018-11-06T16:25:18.731Z,96542.36
2018-11-06T16:27:46.334Z,96543.49
2018-11-06T16:30:13.807Z,96535.38
2018-11-06T16:32:41.276Z,96515.34
2018-11-06T16:35:08.733Z,96492.06
2018-11-06T16:37:36.179Z,96478.53
2018-11-06T16:40:03.621Z,96510.80
2018-11-06T16:42:31.060Z,96528.36
2018-11-06T16:44:58.726Z,96520.94
2018-11-06T16:47:26.212Z,96517.41
2018-11-06T16:49:53.664Z,96514.20
2018-11-06T16:52:21.245Z,96513.95
2018-11-06T16:54:48.687Z,96519.20
2018-11-06T16:57:16.204Z,96516.55
2018-11-06T16:59:43.943Z,96515.73
2018-11-06T17:02:11.331Z,96522.08
2018-11-06T17:04:39.010Z,96518.32
2018-11-06T17:07:06.505Z,96514.77
2018-11-06T17:09:34.119Z,96520.13
2018-11-06T17:12:01.579Z,96520.50
2018-11-06T17:14:29.009Z,96520.43
2018-11-06T17:16:56.469Z,96531.50
2018-11-06T17:19:23.911Z,96538.69
2018-11-06T17:21:51.482Z,96540.17
2018-11-06T17:24:18.976Z,96537.17
2018-11-06T17:26:47.448Z,96538.38
2018-11-06T17:29:14.913Z,96542.41
2018-11-06T17:31:42.809Z,96543.73
2018-11-06T17:34:11.268Z,96547.39
2018-11-06T17:36:38.730Z,96553.77
2018-11-06T17:39:06.237Z,96556.29
2018-11-06T17:41:33.691Z,96566.92
2018-11-06T17:44:01.276Z,96568.30
2018-11-06T17:46:28.745Z,96567.41
2018-11-06T17:48:56.166Z,96565.82
2018-11-06T17:51:23.611Z,96559.40
2018-11-06T17:53:51.047Z,96571.14
2018-11-06T17:56:18.492Z,96575.17
2018-11-06T17:58:46.046Z,96577.91
2018-11-06T18:01:13.475Z,96575.52
2018-11-06T18:03:40.911Z,96573.38
2018-11-06T18:06:08.354Z,96582.97
2018-11-06T18:08:35.846Z,96570.17
2018-11-06T18:11:03.288Z,96566.48
2018-11-06T18:13:30.720Z,96568.06
2018-11-06T18:15:58.183Z,96573.38
2018-11-06T18:18:25.650Z,96573.06
2018-11-06T18:20:53.162Z,96572.00
2018-11-06T18:23:20.635Z,96576.76
2018-11-06T18:25:48.383Z,96589.53
2018-11-06T18:28:15.811Z,96589.47
2018-11-06T18:30:43.374Z,96585.66
2018-11-06T18:33:10.855Z,96587.31
2018-11-06T18:35:38.662Z,96587.48
2018-11-06T18:38:06.102Z,96577.13
2018-11-06T18:40:33.548Z,96569.95
2018-11-06T18:43:00.994Z,96570.41
2018-11-06T18:45:28.462Z,96573.55
2018-11-06T18:47:55.924Z,96566.41
2018-11-06T18:50:23.360Z,96579.04
2018-11-06T18:52:50.792Z,96592.39
2018-11-06T18:55:18.235Z,96594.64
2018-11-06T18:57:45.685Z,96602.14
2018-11-06T19:00:13.291Z,96612.40
2018-11-06T19:02:41.083Z,96603.88
2018-11-06T19:05:08.853Z,96590.47
2018-11-06T19:07:37.300Z,96591.89
2018-11-06T19:10:05.079Z,96589.68
2018-11-06T19:12:33.788Z,96591.58
2018-11-06T19:15:01.234Z,96598.75
2018-11-06T19:17:28.689Z,96603.72
2018-11-06T19:19:56.961Z,96601.99
2018-11-06T19:22:24.416Z,96609.04
2018-11-06T19:24:51.867Z,96605.17
2018-11-06T19:27:19.324Z,96608.46
2018-11-06T19:29:46.809Z,96602.73
2018-11-06T19:32:14.973Z,96601.63
2018-11-06T19:34:42.419Z,96601.97
2018-11-06T19:37:09.898Z,96614.78
2018-11-06T19:39:37.325Z,96610.77
2018-11-06T19:42:04.840Z,96607.25
2018-11-06T19:44:32.281Z,96601.83
2018-11-06T19:46:59.707Z,96600.00
2018-11-06T19:49:27.140Z,96602.63
2018-11-06T19:51:55.568Z,96603.52
2018-11-06T19:54:23.044Z,96604.91
2018-11-06T19:56:50.544Z,96600.90
2018-11-06T19:59:18.002Z,96602.28
2018-11-06T20:01:45.426Z,96602.05
2018-11-06T20:04:12.939Z,96607.67
2018-11-06T20:06:40.490Z,96609.78
2018-11-06T20:09:08.001Z,96612.05
2018-11-06T20:11:35.535Z,96609.45
2018-11-06T20:14:03.020Z,96619.11
2018-11-06T20:16:30.490Z,96613.88
2018-11-06T20:18:57.964Z,96623.08
2018-11-06T20:21:26.232Z,96625.70
2018-11-06T20:23:53.619Z,96624.43
2018-11-06T20:26:21.096Z,96626.67
2018-11-06T20:28:48.584Z,96621.95
2018-11-06T20:31:16.653Z,96634.80
2018-11-06T20:33:44.419Z,96627.73
2018-11-06T20:36:11.674Z,96617.16
2018-11-06T20:38:39.203Z,96618.80
2018-11-06T20:41:06.654Z,96615.63
2018-11-06T20:43:34.082Z,96617.08
2018-11-06T20:46:01.597Z,96620.28
2018-11-06T20:48:29.037Z,96614.63
2018-11-06T20:50:56.499Z,96601.37
2018-11-06T20:53:24.006Z,96610.22
2018-11-06T20:55:51.656Z,96613.23
2018-11-06T20:58:19.113Z,96618.97
2018-11-06T21:00:46.549Z,96614.80
2018-11-06T21:03:13.996Z,96619.03
2018-11-06T21:05:41.479Z,96617.89
2018-11-06T21:08:08.936Z,96613.58
2018-11-06T21:10:36.602Z,96620.20
2018-11-06T21:13:04.064Z,96615.87
2018-11-06T21:15:31.510Z,96617.67
2018-11-06T21:17:59.164Z,96619.64
2018-11-06T21:20:26.549Z,96611.78
2018-11-06T21:22:54.062Z,96608.02
2018-11-06T21:25:21.622Z,96608.42
2018-11-06T21:27:49.013Z,96615.88
2018-11-06T21:30:16.454Z,96628.60
2018-11-06T21:32:44.425Z,96617.83
2018-11-06T21:35:11.879Z,96614.98
2018-11-06T21:37:39.414Z,96627.37
2018-11-06T21:40:06.847Z,96618.77
2018-11-06T21:42:34.309Z,96623.92
2018-11-06T21:45:01.800Z,96627.58
2018-11-06T21:47:29.272Z,96612.36
2018-11-06T21:49:56.921Z,96619.56
2018-11-06T21:52:24.414Z,96626.46
2018-11-06T21:54:51.891Z,96621.53
2018-11-06T21:57:19.413Z,96618.92
2018-11-06T21:59:46.850Z,96619.42
2018-11-06T22:02:14.327Z,96629.01
2018-11-06T22:04:42.601Z,96640.64
2018-11-06T22:07:10.060Z,96631.05
2018-11-06T22:09:37.585Z,96633.16
2018-11-06T22:12:05.081Z,96625.88
2018-11-06T22:14:32.513Z,96620.73
2018-11-06T22:17:00.042Z,96631.45
2018-11-06T22:19:27.515Z,96629.56
2018-11-06T22:21:54.985Z,96626.46
2018-11-06T22:24:22.433Z,96632.12
2018-11-06T22:26:50.028Z,96634.22
2018-11-06T22:29:17.566Z,96637.02
2018-11-06T22:31:45.201Z,96649.03
2018-11-06T22:34:12.569Z,96647.66
2018-11-06T22:36:40.107Z,96648.14
2018-11-06T22:39:07.541Z,96640.09
2018-11-06T22:41:35.043Z,96643.95
2018-11-06T22:44:02.491Z,96647.28
2018-11-06T22:46:29.935Z,96643.64
2018-11-06T22:48:57.391Z,96644.09
2018-11-06T22:51:24.907Z,96642.42
2018-11-06T22:53:52.986Z,96643.64
2018-11-06T22:56:20.402Z,96648.59
2018-11-06T22:58:48.478Z,96651.27
2018-11-06T23:01:15.886Z,96651.59
2018-11-06T23:03:43.335Z,96651.14
2018-11-06T23:06:11.001Z,96652.86
2018-11-06T23:08:38.154Z,96652.64
2018-11-06T23:11:05.592Z,96652.31
2018-11-06T23:13:33.004Z,96650.45
2018-11-06T23:16:00.447Z,96651.63
2018-11-06T23:18:27.876Z,96654.20
2018-11-06T23:20:55.305Z,96659.85
2018-11-06T23:23:22.709Z,96659.66
2018-11-06T23:25:50.151Z,96654.46
2018-11-06T23:28:17.580Z,96649.47
2018-11-06T23:30:45.020Z,96649.16
2018-11-06T23:33:12.561Z,96655.58
2018-11-06T23:35:40.197Z,96657.84
2018-11-06T23:38:07.628Z,96659.20
2018-11-06T23:40:35.324Z,96658.67
2018-11-06T23:43:03.041Z,96663.64
2018-11-06T23:45:30.709Z,96665.11
2018-11-06T23:47:58.120Z,96665.69
2018-11-06T23:50:25.616Z,96668.95
2018-11-06T23:52:53.086Z,96670.65
2018-11-06T23:55:20.536Z,96677.78
2018-11-06T23:57:47.971Z,96678.44
